sensor_id;sensor_type;location;lat;lon;timestamp;pressure;altitude;pressure_sealevel;temperature;humidity
27980;BME280;15315;50.836;4.430;2024-01-16T00:02:33;100608.94;;;7.96;54.50
27980;BME280;15315;50.836;4.430;2024-01-16T00:12:33;100612.56;;;7.52;55.26
27980;BME280;15315;50.836;4.430;2024-01-16T00:22:34;100636.03;;;7.32;54.71
27980;BME280;15315;50.836;4.430;2024-01-16T00:32:34;100631.28;;;7.97;54.13
27980;BME280;15315;50.836;4.430;2024-01-16T00:42:34;100632.38;;;7.49;54.07
27980;BME280;15315;50.836;4.430;2024-01-16T00:52:35;100641.03;;;7.38;52.90
27980;BME280;15315;50.836;4.430;2024-01-16T01:02:35;100655.94;;;7.74;53.35
27980;BME280;15315;50.836;4.430;2024-01-16T01:12:36;100652.47;;;6.64;54.31
27980;BME280;15315;50.836;4.430;2024-01-16T01:22:37;100654.25;;;7.57;52.57
27980;BME280;15315;50.836;4.430;2024-01-16T01:32:38;100656.38;;;7.36;52.28
27980;BME280;15315;50.836;4.430;2024-01-16T01:42:40;100648.31;;;7.66;52.01
27980;BME280;15315;50.836;4.430;2024-01-16T01:52:41;100643.19;;;7.32;51.81
27980;BME280;15315;50.836;4.430;2024-01-16T02:02:44;100639.22;;;7.39;51.13
27980;BME280;15315;50.836;4.430;2024-01-16T02:12:45;100639.75;;;7.30;51.14
27980;BME280;15315;50.836;4.430;2024-01-16T02:22:48;100632.91;;;7.24;51.01
27980;BME280;15315;50.836;4.430;2024-01-16T02:32:50;100627.59;;;7.09;50.38
27980;BME280;15315;50.836;4.430;2024-01-16T02:42:50;100633.31;;;7.03;50.91
27980;BME280;15315;50.836;4.430;2024-01-16T02:52:51;100638.19;;;7.42;50.53
27980;BME280;15315;50.836;4.430;2024-01-16T03:02:52;100632.59;;;6.52;51.17
27980;BME280;15315;50.836;4.430;2024-01-16T03:12:53;100624.44;;;6.38;51.08
27980;BME280;15315;50.836;4.430;2024-01-16T03:22:54;100622.03;;;7.27;50.45
27980;BME280;15315;50.836;4.430;2024-01-16T03:32:54;100609.75;;;7.23;50.65
27980;BME280;15315;50.836;4.430;2024-01-16T03:42:55;100589.69;;;7.15;49.99
27980;BME280;15315;50.836;4.430;2024-01-16T03:52:55;100585.25;;;7.29;48.84
27980;BME280;15315;50.836;4.430;2024-01-16T04:02:56;100589.75;;;7.59;48.71
27980;BME280;15315;50.836;4.430;2024-01-16T04:13:00;100582.22;;;6.90;50.73
27980;BME280;15315;50.836;4.430;2024-01-16T04:23:02;100567.69;;;6.63;50.43
27980;BME280;15315;50.836;4.430;2024-01-16T04:33:03;100556.19;;;6.92;49.90
27980;BME280;15315;50.836;4.430;2024-01-16T04:43:03;100537.22;;;6.34;50.47
27980;BME280;15315;50.836;4.430;2024-01-16T04:53:04;100542.31;;;6.86;49.84
27980;BME280;15315;50.836;4.430;2024-01-16T05:03:05;100532.78;;;6.96;49.25
27980;BME280;15315;50.836;4.430;2024-01-16T05:13:06;100531.22;;;6.92;49.45
27980;BME280;15315;50.836;4.430;2024-01-16T05:23:06;100538.00;;;6.52;50.05
27980;BME280;15315;50.836;4.430;2024-01-16T05:33:08;100533.09;;;6.60;49.71
27980;BME280;15315;50.836;4.430;2024-01-16T05:43:08;100532.09;;;6.77;49.35
27980;BME280;15315;50.836;4.430;2024-01-16T05:53:08;100533.69;;;6.49;49.40
27980;BME280;15315;50.836;4.430;2024-01-16T06:03:10;100522.03;;;6.02;49.96
27980;BME280;15315;50.836;4.430;2024-01-16T06:13:10;100524.06;;;6.30;49.83
27980;BME280;15315;50.836;4.430;2024-01-16T06:23:11;100522.53;;;6.41;49.12
27980;BME280;15315;50.836;4.430;2024-01-16T06:33:11;100524.50;;;6.53;48.92
27980;BME280;15315;50.836;4.430;2024-01-16T06:43:12;100527.06;;;6.86;48.10
27980;BME280;15315;50.836;4.430;2024-01-16T06:53:15;100517.03;;;6.44;48.15
27980;BME280;15315;50.836;4.430;2024-01-16T07:03:16;100534.44;;;6.20;48.97
27980;BME280;15315;50.836;4.430;2024-01-16T07:13:19;100533.81;;;5.82;49.63
27980;BME280;15315;50.836;4.430;2024-01-16T07:23:19;100526.69;;;5.98;49.92
27980;BME280;15315;50.836;4.430;2024-01-16T07:33:20;100532.72;;;6.02;49.74
27980;BME280;15315;50.836;4.430;2024-01-16T07:43:20;100539.78;;;6.20;48.72
27980;BME280;15315;50.836;4.430;2024-01-16T07:53:20;100547.69;;;5.73;49.78
27980;BME280;15315;50.836;4.430;2024-01-16T08:03:22;100563.19;;;5.99;49.51
27980;BME280;15315;50.836;4.430;2024-01-16T08:13:22;100556.56;;;6.39;48.98
27980;BME280;15315;50.836;4.430;2024-01-16T08:23:23;100560.25;;;6.68;48.18
27980;BME280;15315;50.836;4.430;2024-01-16T08:33:24;100575.72;;;6.16;49.33
27980;BME280;15315;50.836;4.430;2024-01-16T08:43:24;100588.53;;;6.89;47.80
27980;BME280;15315;50.836;4.430;2024-01-16T08:53:24;100562.34;;;7.54;46.65
27980;BME280;15315;50.836;4.430;2024-01-16T09:03:25;100553.31;;;7.41;46.95
27980;BME280;15315;50.836;4.430;2024-01-16T09:13:26;100545.00;;;7.45;46.59
27980;BME280;15315;50.836;4.430;2024-01-16T09:23:27;100533.25;;;7.62;46.08
27980;BME280;15315;50.836;4.430;2024-01-16T09:33:27;100538.59;;;6.57;46.81
27980;BME280;15315;50.836;4.430;2024-01-16T09:43:28;100518.97;;;6.88;47.36
27980;BME280;15315;50.836;4.430;2024-01-16T09:53:29;100508.47;;;6.99;47.31
27980;BME280;15315;50.836;4.430;2024-01-16T10:03:31;100510.69;;;7.50;46.40
27980;BME280;15315;50.836;4.430;2024-01-16T10:13:34;100503.09;;;8.15;45.22
27980;BME280;15315;50.836;4.430;2024-01-16T10:23:34;100494.56;;;8.22;45.61
27980;BME280;15315;50.836;4.430;2024-01-16T10:33:34;100499.28;;;8.05;44.86
27980;BME280;15315;50.836;4.430;2024-01-16T10:43:37;100500.97;;;7.63;45.55
27980;BME280;15315;50.836;4.430;2024-01-16T10:53:42;100476.72;;;7.65;46.47
27980;BME280;15315;50.836;4.430;2024-01-16T11:03:48;100483.81;;;8.22;45.17
27980;BME280;15315;50.836;4.430;2024-01-16T11:13:50;100473.38;;;8.44;45.51
27980;BME280;15315;50.836;4.430;2024-01-16T11:23:52;100458.00;;;8.60;45.17
27980;BME280;15315;50.836;4.430;2024-01-16T11:33:52;100452.69;;;9.12;43.77
27980;BME280;15315;50.836;4.430;2024-01-16T11:43:52;100435.53;;;7.94;44.15
27980;BME280;15315;50.836;4.430;2024-01-16T11:53:53;100434.31;;;8.80;43.65
27980;BME280;15315;50.836;4.430;2024-01-16T12:04:04;100412.25;;;9.27;42.58
27980;BME280;15315;50.836;4.430;2024-01-16T12:14:05;100406.47;;;8.93;42.84
27980;BME280;15315;50.836;4.430;2024-01-16T12:24:06;100396.03;;;9.15;42.93
27980;BME280;15315;50.836;4.430;2024-01-16T12:34:08;100383.84;;;9.60;42.25
27980;BME280;15315;50.836;4.430;2024-01-16T12:44:09;100369.84;;;9.55;42.56
27980;BME280;15315;50.836;4.430;2024-01-16T12:54:11;100384.63;;;9.99;41.89
27980;BME280;15315;50.836;4.430;2024-01-16T13:04:13;100371.78;;;8.90;42.90
27980;BME280;15315;50.836;4.430;2024-01-16T13:14:18;100353.41;;;9.22;42.42
27980;BME280;15315;50.836;4.430;2024-01-16T13:24:20;100334.47;;;8.07;42.21
27980;BME280;15315;50.836;4.430;2024-01-16T13:34:23;100335.19;;;8.88;41.10
27980;BME280;15315;50.836;4.430;2024-01-16T13:44:24;100315.94;;;8.81;41.78
27980;BME280;15315;50.836;4.430;2024-01-16T13:54:24;100289.31;;;9.65;41.61
27980;BME280;15315;50.836;4.430;2024-01-16T14:04:27;100265.50;;;9.71;40.69
27980;BME280;15315;50.836;4.430;2024-01-16T14:14:27;100266.06;;;9.28;40.36
27980;BME280;15315;50.836;4.430;2024-01-16T14:24:28;100255.66;;;9.47;40.08
27980;BME280;15315;50.836;4.430;2024-01-16T14:34:28;100249.72;;;9.54;39.97
27980;BME280;15315;50.836;4.430;2024-01-16T14:44:29;100248.81;;;9.90;39.58
27980;BME280;15315;50.836;4.430;2024-01-16T14:54:29;100241.44;;;9.81;39.66
27980;BME280;15315;50.836;4.430;2024-01-16T15:04:31;100236.81;;;9.83;39.14
27980;BME280;15315;50.836;4.430;2024-01-16T15:14:32;100232.78;;;9.41;39.04
27980;BME280;15315;50.836;4.430;2024-01-16T15:24:33;100257.03;;;9.29;38.93
27980;BME280;15315;50.836;4.430;2024-01-16T15:34:33;100245.41;;;9.64;39.21
27980;BME280;15315;50.836;4.430;2024-01-16T15:44:33;100264.00;;;9.18;39.50
27980;BME280;15315;50.836;4.430;2024-01-16T15:54:34;100271.97;;;9.33;39.90
27980;BME280;15315;50.836;4.430;2024-01-16T16:04:35;100243.47;;;9.30;39.54
27980;BME280;15315;50.836;4.430;2024-01-16T16:14:37;100233.88;;;9.39;39.89
27980;BME280;15315;50.836;4.430;2024-01-16T16:24:41;100243.34;;;9.32;39.54
27980;BME280;15315;50.836;4.430;2024-01-16T16:34:44;100227.19;;;9.32;40.27
27980;BME280;15315;50.836;4.430;2024-01-16T16:44:45;100231.63;;;9.33;40.53
27980;BME280;15315;50.836;4.430;2024-01-16T16:54:46;100221.66;;;9.09;40.90
27980;BME280;15315;50.836;4.430;2024-01-16T17:04:49;100207.13;;;8.99;40.86
27980;BME280;15315;50.836;4.430;2024-01-16T17:14:50;100206.09;;;8.64;41.86
27980;BME280;15315;50.836;4.430;2024-01-16T17:24:54;100189.78;;;8.67;41.97
27980;BME280;15315;50.836;4.430;2024-01-16T17:34:54;100169.44;;;8.63;42.39
27980;BME280;15315;50.836;4.430;2024-01-16T17:44:55;100158.25;;;8.06;43.68
27980;BME280;15315;50.836;4.430;2024-01-16T17:54:59;100149.63;;;7.88;43.93
27980;BME280;15315;50.836;4.430;2024-01-16T18:05:00;100137.31;;;7.98;43.77
27980;BME280;15315;50.836;4.430;2024-01-16T18:15:02;100133.09;;;7.69;44.53
27980;BME280;15315;50.836;4.430;2024-01-16T18:25:04;100118.63;;;7.97;44.11
27980;BME280;15315;50.836;4.430;2024-01-16T18:35:06;100113.69;;;7.91;44.42
27980;BME280;15315;50.836;4.430;2024-01-16T18:45:09;100102.94;;;7.91;44.45
27980;BME280;15315;50.836;4.430;2024-01-16T18:55:11;100090.19;;;7.94;44.88
27980;BME280;15315;50.836;4.430;2024-01-16T19:05:14;100088.25;;;8.09;44.55
27980;BME280;15315;50.836;4.430;2024-01-16T19:15:15;100070.66;;;8.05;44.79
27980;BME280;15315;50.836;4.430;2024-01-16T19:25:19;100060.63;;;8.45;43.87
27980;BME280;15315;50.836;4.430;2024-01-16T19:35:21;100060.41;;;8.35;43.97
27980;BME280;15315;50.836;4.430;2024-01-16T19:45:22;100050.59;;;7.98;44.80
27980;BME280;15315;50.836;4.430;2024-01-16T19:55:23;100051.03;;;7.53;46.23
27980;BME280;15315;50.836;4.430;2024-01-16T20:05:25;100046.25;;;7.18;46.78
27980;BME280;15315;50.836;4.430;2024-01-16T20:15:25;100041.47;;;7.36;46.67
27980;BME280;15315;50.836;4.430;2024-01-16T20:25:26;100013.19;;;7.57;45.91
27980;BME280;15315;50.836;4.430;2024-01-16T20:35:29;99989.25;;;7.29;46.78
27980;BME280;15315;50.836;4.430;2024-01-16T20:45:30;99962.25;;;7.70;46.18
27980;BME280;15315;50.836;4.430;2024-01-16T20:55:30;99947.84;;;7.83;45.64
27980;BME280;15315;50.836;4.430;2024-01-16T21:05:31;99920.81;;;7.11;46.66
27980;BME280;15315;50.836;4.430;2024-01-16T21:15:31;99907.81;;;6.65;47.22
27980;BME280;15315;50.836;4.430;2024-01-16T21:25:32;99908.84;;;6.50;47.62
27980;BME280;15315;50.836;4.430;2024-01-16T21:35:32;99895.88;;;6.18;48.17
27980;BME280;15315;50.836;4.430;2024-01-16T21:45:32;99880.59;;;6.05;48.46
27980;BME280;15315;50.836;4.430;2024-01-16T21:55:33;99858.91;;;6.89;46.88
27980;BME280;15315;50.836;4.430;2024-01-16T22:05:34;99856.56;;;6.32;47.81
27980;BME280;15315;50.836;4.430;2024-01-16T22:15:35;99849.84;;;6.39;47.31
27980;BME280;15315;50.836;4.430;2024-01-16T22:25:35;99846.16;;;5.87;47.87
27980;BME280;15315;50.836;4.430;2024-01-16T22:35:36;99821.34;;;6.38;47.20
27980;BME280;15315;50.836;4.430;2024-01-16T22:45:37;99798.47;;;5.93;46.78
27980;BME280;15315;50.836;4.430;2024-01-16T22:55:37;99785.16;;;6.58;46.24
27980;BME280;15315;50.836;4.430;2024-01-16T23:05:38;99756.91;;;6.54;45.73
27980;BME280;15315;50.836;4.430;2024-01-16T23:15:39;99745.25;;;6.93;45.48
27980;BME280;15315;50.836;4.430;2024-01-16T23:25:39;99714.25;;;6.89;45.08
27980;BME280;15315;50.836;4.430;2024-01-16T23:35:40;99706.69;;;6.70;45.28
27980;BME280;15315;50.836;4.430;2024-01-16T23:45:43;99700.06;;;6.76;45.34
27980;BME280;15315;50.836;4.430;2024-01-16T23:55:46;99679.75;;;6.97;44.83
